Impacts METAR Board
IDs:

KMEM - Memphis Intl, TN, US

Updated at: 1300 UTC 16 Sep 2019
Potential Impact None Slight Moderate High
Time 16/01Z 16/02Z 16/03Z 16/04Z 16/05Z 16/06Z 16/07Z 16/08Z 16/09Z 16/10Z 16/11Z 16/12Z 16/13Z
Temp86 85 84 81 79 78 76 75 78 76 74 74 81
Dewpt67 68 68 69 69 70 69 70 71 71 71 71 72
Altim30.04 30.06 30.07 30.07 30.07 30.07 30.07 30.07 30.08 30.07 30.09 30.10 30.11
VIS10 10 10 10 10 10 10 10 10 10 10 9 10
CIG-- -- -- -- -- -- -- -- -- -- -- -- --
CoverFEWCLRCLRCLRCLRCLRCLRCLRCLRCLRCLRCLRCLR
FltCatVFRVFRVFRVFRVFRVFRVFRVFRVFRVFRVFRVFRVFR
WX--------------------------
WDir0200000000600000
WSpd0 3 0 0 0 0 0 0 3 0 0 0 0
WGst-- -- -- -- -- -- -- -- -- -- -- -- --
Raw hourly METARs
KMEM 160054Z 00000KT 10SM FEW250 30/19 A3004 RMK AO2 SLP167 T03000194 $
KMEM 160154Z 20003KT 10SM CLR 29/20 A3006 RMK AO2 SLP173 T02940200 $
KMEM 160254Z 00000KT 10SM CLR 29/20 A3007 RMK AO2 SLP177 T02890200 53012 $
KMEM 160354Z 00000KT 10SM CLR 27/21 A3007 RMK AO2 SLP178 T02720206 $
KMEM 160454Z 00000KT 10SM CLR 26/21 A3007 RMK AO2 SLP179 T02610206 $
KMEM 160554Z 00000KT 10SM CLR 26/21 A3007 RMK AO2 SLP177 T02560211 10333 20256 403610239 58000 $
KMEM 160654Z 00000KT 10SM CLR 24/21 A3007 RMK AO2 SLP176 T02440206 $
KMEM 160754Z 00000KT 10SM CLR 24/21 A3007 RMK AO2 SLP176 T02390211 $
KMEM 160854Z 06003KT 10SM CLR 26/22 A3008 RMK AO2 SLP179 T02560217 53002 $
KMEM 160954Z 00000KT 10SM CLR 24/22 A3007 RMK AO2 SLP179 T02440217 $
KMEM 161054Z 00000KT 10SM CLR 23/22 A3009 RMK AO2 SLP183 T02330217 $
KMEM 161154Z 00000KT 9SM CLR 23/22 A3010 RMK AO2 SLP188 T02330217 10256 20233 53008 $
KMEM 161254Z 00000KT 10SM CLR 27/22 A3011 RMK AO2 SLP192 T02720222 $



Page loaded:  13:11 UTC  |   06:11 AM Pacific  |   07:11 AM Mountain  |   08:11 AM Central  |   09:11 AM Eastern

 

ADVISORIES

FORECASTS

FORECASTS

OBSERVATIONS

USER TOOLS

ABOUT US